createdAt,value
2022-08-31T00:01:33.506Z,86.90
2022-08-31T00:03:56.303Z,87.00
2022-08-31T00:06:02.363Z,87.00
2022-08-31T00:08:06.893Z,87.50
2022-08-31T00:10:18.613Z,87.50
2022-08-31T00:12:24.569Z,87.70
2022-08-31T00:14:30.560Z,87.50
2022-08-31T00:16:38.450Z,87.30
2022-08-31T00:18:43.060Z,87.40
2022-08-31T00:20:48.795Z,87.20
2022-08-31T00:22:53.374Z,87.20
2022-08-31T00:25:01.856Z,86.80
2022-08-31T00:27:07.564Z,86.50
2022-08-31T00:29:12.633Z,86.20
2022-08-31T00:31:19.088Z,86.10
2022-08-31T00:33:23.898Z,85.70
2022-08-31T00:35:28.618Z,85.80
2022-08-31T00:37:33.171Z,85.70
2022-08-31T00:39:38.417Z,85.60
2022-08-31T00:41:43.731Z,85.80
2022-08-31T00:43:50.416Z,86.60
2022-08-31T00:45:54.876Z,87.60
2022-08-31T00:48:00.571Z,88.30
2022-08-31T00:50:07.410Z,88.40
2022-08-31T00:52:17.310Z,88.50
2022-08-31T00:54:26.363Z,88.90
2022-08-31T00:56:31.592Z,89.50
2022-08-31T00:58:36.145Z,89.80
2022-08-31T01:00:43.297Z,89.90
2022-08-31T01:02:48.422Z,90.00
2022-08-31T01:04:54.157Z,90.10
2022-08-31T01:06:59.064Z,90.20
2022-08-31T01:09:05.003Z,90.20
2022-08-31T01:11:09.766Z,90.20
2022-08-31T01:13:15.335Z,90.30
2022-08-31T01:15:19.875Z,90.20
2022-08-31T01:17:24.674Z,90.40
2022-08-31T01:19:34.054Z,90.30
2022-08-31T01:21:45.046Z,90.40
2022-08-31T01:23:51.052Z,90.40
2022-08-31T01:25:57.837Z,90.20
2022-08-31T01:28:05.855Z,90.20
2022-08-31T01:30:12.812Z,90.20
2022-08-31T01:32:18.085Z,90.00
2022-08-31T01:34:22.609Z,90.00
2022-08-31T01:36:27.382Z,89.70
2022-08-31T01:38:34.758Z,90.00
2022-08-31T01:40:51.441Z,89.50
2022-08-31T01:42:55.736Z,89.30
2022-08-31T01:45:00.382Z,89.60
2022-08-31T01:47:04.874Z,90.10
2022-08-31T01:49:09.147Z,89.90
2022-08-31T01:51:15.971Z,90.00
2022-08-31T01:53:20.586Z,89.40
2022-08-31T01:55:25.109Z,89.70
2022-08-31T01:57:34.177Z,89.20
2022-08-31T01:59:55.148Z,89.80
2022-08-31T02:02:17.924Z,89.90
2022-08-31T02:04:25.252Z,90.20
2022-08-31T02:06:34.410Z,90.30
2022-08-31T02:08:38.942Z,90.10
2022-08-31T02:10:44.654Z,90.30
2022-08-31T02:12:50.868Z,90.60
2022-08-31T02:14:55.554Z,90.50
2022-08-31T02:16:59.844Z,90.80
2022-08-31T02:19:04.479Z,90.70
2022-08-31T02:21:09.812Z,90.70
2022-08-31T02:23:14.245Z,90.90
2022-08-31T02:25:19.089Z,90.80
2022-08-31T02:27:24.673Z,91.30
2022-08-31T02:29:30.877Z,91.40
2022-08-31T02:31:37.022Z,91.00
2022-08-31T02:33:41.298Z,91.20
2022-08-31T02:35:46.028Z,91.40
2022-08-31T02:37:55.119Z,91.20
2022-08-31T02:39:59.608Z,91.30
2022-08-31T02:42:04.331Z,91.40
2022-08-31T02:44:08.596Z,91.50
2022-08-31T02:46:14.524Z,91.40
2022-08-31T02:48:24.685Z,91.30
2022-08-31T02:50:29.420Z,91.10
2022-08-31T02:52:36.394Z,91.50
2022-08-31T02:54:41.785Z,91.20
2022-08-31T02:56:46.066Z,91.20
2022-08-31T02:58:55.335Z,90.80
2022-08-31T03:01:01.859Z,90.80
2022-08-31T03:03:10.467Z,90.80
2022-08-31T03:05:15.414Z,90.70
2022-08-31T03:07:20.777Z,90.70
2022-08-31T03:09:25.144Z,90.70
2022-08-31T03:11:29.916Z,90.70
2022-08-31T03:13:34.276Z,90.60
2022-08-31T03:15:39.405Z,90.80
2022-08-31T03:17:44.212Z,90.90
2022-08-31T03:19:50.714Z,90.90
2022-08-31T03:21:56.161Z,90.90
2022-08-31T03:24:01.782Z,91.00
2022-08-31T03:26:06.770Z,91.10
2022-08-31T03:28:13.995Z,91.00
2022-08-31T03:30:24.571Z,91.40
2022-08-31T03:32:46.129Z,91.00
2022-08-31T03:34:55.069Z,91.10
2022-08-31T03:36:59.466Z,91.00
2022-08-31T03:39:04.794Z,91.00
2022-08-31T03:41:09.373Z,91.00
2022-08-31T03:43:14.717Z,91.00
2022-08-31T03:45:20.437Z,91.10
2022-08-31T03:47:24.702Z,91.40
2022-08-31T03:49:32.923Z,90.80
2022-08-31T03:51:54.190Z,90.50
2022-08-31T03:54:00.155Z,90.40
2022-08-31T03:56:08.700Z,90.40
2022-08-31T03:58:18.144Z,90.30
2022-08-31T04:00:23.170Z,90.30
2022-08-31T04:02:37.314Z,90.40
2022-08-31T04:04:55.321Z,90.50
2022-08-31T04:07:20.255Z,90.70
2022-08-31T04:10:01.057Z,90.60
2022-08-31T04:12:24.010Z,90.30
2022-08-31T04:14:57.729Z,90.50
2022-08-31T04:17:20.775Z,90.40
2022-08-31T04:19:31.717Z,89.70
2022-08-31T04:21:52.402Z,89.20
2022-08-31T04:23:58.856Z,90.00
2022-08-31T04:26:06.505Z,90.20
2022-08-31T04:28:11.221Z,90.60
2022-08-31T04:30:21.099Z,91.10
2022-08-31T04:32:25.449Z,91.30
2022-08-31T04:34:30.716Z,91.50
2022-08-31T04:36:35.164Z,91.90
2022-08-31T04:38:40.759Z,92.00
2022-08-31T04:40:47.549Z,91.80
2022-08-31T04:42:52.046Z,92.10
2022-08-31T04:45:00.339Z,92.20
2022-08-31T04:47:05.578Z,92.40
2022-08-31T04:49:11.873Z,92.50
2022-08-31T04:51:18.260Z,92.50
2022-08-31T04:53:23.686Z,92.50
2022-08-31T04:55:28.412Z,92.40
2022-08-31T04:57:38.535Z,92.30
2022-08-31T04:59:42.881Z,92.60
2022-08-31T05:02:08.567Z,92.50
2022-08-31T05:04:25.349Z,92.50
2022-08-31T05:06:36.509Z,92.60
2022-08-31T05:08:41.060Z,92.90
2022-08-31T05:10:48.717Z,93.40
2022-08-31T05:12:54.827Z,93.70
2022-08-31T05:15:01.248Z,94.40
2022-08-31T05:17:13.784Z,95.10
2022-08-31T05:19:20.425Z,95.60
2022-08-31T05:21:28.734Z,96.00
2022-08-31T05:23:33.037Z,96.50
2022-08-31T05:25:40.925Z,96.70
2022-08-31T05:27:53.641Z,97.40
2022-08-31T05:30:00.523Z,98.00
2022-08-31T05:32:19.561Z,98.00
2022-08-31T05:34:26.188Z,98.20
2022-08-31T05:36:31.179Z,98.40
2022-08-31T05:38:36.151Z,98.30
2022-08-31T05:40:41.076Z,98.40
2022-08-31T05:42:45.557Z,98.60
2022-08-31T05:44:51.299Z,98.50
2022-08-31T05:47:03.577Z,98.20
2022-08-31T05:49:11.510Z,98.20
2022-08-31T05:51:19.352Z,98.10
2022-08-31T05:53:24.050Z,98.70
2022-08-31T05:55:28.565Z,98.60
2022-08-31T05:57:34.033Z,98.70
2022-08-31T05:59:41.141Z,98.50
2022-08-31T06:01:47.079Z,98.60
2022-08-31T06:03:54.422Z,98.50
2022-08-31T06:05:59.314Z,98.50
2022-08-31T06:08:04.254Z,98.60
2022-08-31T06:10:10.607Z,98.20
2022-08-31T06:12:17.942Z,98.10
2022-08-31T06:14:24.056Z,97.80
2022-08-31T06:16:32.453Z,97.60
2022-08-31T06:18:38.687Z,97.60
2022-08-31T06:20:44.978Z,97.20
2022-08-31T06:22:49.603Z,97.50
2022-08-31T06:25:08.497Z,96.60
2022-08-31T06:27:13.022Z,96.90
2022-08-31T06:29:18.036Z,96.20
2022-08-31T06:31:26.800Z,95.80
2022-08-31T06:33:32.586Z,95.70
2022-08-31T06:35:53.654Z,95.80
2022-08-31T06:38:27.508Z,95.80
2022-08-31T06:40:56.174Z,95.40
2022-08-31T06:43:20.182Z,95.40
2022-08-31T06:45:37.654Z,95.10
2022-08-31T06:48:00.991Z,95.20
2022-08-31T06:50:06.289Z,94.30
2022-08-31T06:52:12.592Z,93.80
2022-08-31T06:54:35.997Z,93.80
2022-08-31T06:56:59.738Z,93.10
2022-08-31T06:59:20.222Z,92.10
2022-08-31T07:01:37.104Z,90.80
2022-08-31T07:03:58.596Z,90.30
2022-08-31T07:06:08.245Z,90.30
2022-08-31T07:08:14.592Z,90.60
2022-08-31T07:10:19.975Z,90.00
2022-08-31T07:12:24.307Z,89.20
2022-08-31T07:14:30.355Z,87.80
2022-08-31T07:16:36.202Z,87.40
2022-08-31T07:18:41.615Z,87.90
2022-08-31T07:20:48.116Z,88.20
2022-08-31T07:22:54.212Z,88.20
2022-08-31T07:25:18.436Z,87.10
2022-08-31T07:27:22.891Z,86.20
2022-08-31T07:29:40.450Z,87.80
2022-08-31T07:31:49.334Z,87.70
2022-08-31T07:33:57.488Z,87.10
2022-08-31T07:36:03.167Z,86.20
2022-08-31T07:38:37.227Z,85.60
2022-08-31T07:41:01.461Z,84.20
2022-08-31T07:43:07.005Z,82.80
2022-08-31T07:45:22.919Z,82.20
2022-08-31T07:47:30.082Z,82.10
2022-08-31T07:49:35.534Z,81.50
2022-08-31T07:51:50.586Z,82.40
2022-08-31T07:54:20.728Z,80.60
2022-08-31T07:57:03.366Z,81.00
2022-08-31T07:59:11.027Z,80.80
2022-08-31T08:01:16.930Z,81.80
2022-08-31T08:03:22.079Z,81.50
2022-08-31T08:05:45.439Z,79.10
2022-08-31T08:08:12.240Z,79.00
2022-08-31T08:10:52.504Z,78.70
2022-08-31T08:13:12.759Z,78.80
2022-08-31T08:15:40.461Z,78.00
2022-08-31T08:17:57.737Z,78.00
2022-08-31T08:20:08.398Z,77.60
2022-08-31T08:22:35.728Z,78.50
2022-08-31T08:25:02.433Z,78.50
2022-08-31T08:27:20.457Z,77.80
2022-08-31T08:29:33.738Z,78.30
2022-08-31T08:31:41.269Z,78.60
2022-08-31T08:33:46.577Z,77.60
2022-08-31T08:35:57.315Z,78.20
2022-08-31T08:38:07.570Z,77.90
2022-08-31T08:40:22.901Z,77.60
2022-08-31T08:42:28.008Z,77.90
2022-08-31T08:44:35.551Z,77.80
2022-08-31T08:46:48.749Z,77.60
2022-08-31T08:48:57.899Z,78.70
2022-08-31T08:51:04.728Z,78.40
2022-08-31T08:53:24.123Z,77.80
2022-08-31T08:55:41.527Z,77.90
2022-08-31T08:57:49.749Z,77.80
2022-08-31T08:59:58.849Z,78.20
2022-08-31T09:02:06.815Z,78.30
2022-08-31T09:04:23.247Z,78.00
2022-08-31T09:06:45.596Z,77.70
2022-08-31T09:09:24.573Z,78.00
2022-08-31T09:11:46.747Z,78.90
2022-08-31T09:14:06.504Z,78.70
2022-08-31T09:16:28.530Z,78.50
2022-08-31T09:18:45.542Z,78.70
2022-08-31T09:21:04.247Z,78.60
2022-08-31T09:23:09.984Z,77.20
2022-08-31T09:25:19.228Z,77.50
2022-08-31T09:27:46.741Z,76.70
2022-08-31T09:29:56.910Z,76.50
2022-08-31T09:32:07.292Z,76.50
2022-08-31T09:34:25.452Z,76.10
2022-08-31T09:36:41.346Z,75.70
2022-08-31T09:38:47.794Z,76.00
2022-08-31T09:40:53.312Z,76.00
2022-08-31T09:43:07.146Z,76.30
2022-08-31T09:45:19.906Z,75.80
2022-08-31T09:47:48.285Z,75.70
2022-08-31T09:49:58.133Z,74.10
2022-08-31T09:52:20.391Z,74.10
2022-08-31T09:54:47.187Z,74.10
2022-08-31T09:56:56.610Z,74.50
2022-08-31T09:59:03.256Z,75.00
2022-08-31T10:01:13.176Z,75.20
2022-08-31T10:03:22.736Z,76.10
2022-08-31T10:05:32.456Z,75.80
2022-08-31T10:07:44.298Z,75.00
2022-08-31T10:09:57.784Z,74.80
2022-08-31T10:12:05.534Z,74.40
2022-08-31T10:14:16.972Z,73.20
2022-08-31T10:16:30.458Z,74.00
2022-08-31T10:18:45.004Z,72.90
2022-08-31T10:20:56.129Z,73.00
2022-08-31T10:23:15.305Z,74.00
2022-08-31T10:25:31.174Z,75.00
2022-08-31T10:27:42.624Z,75.60
2022-08-31T10:29:54.991Z,76.00
2022-08-31T10:32:04.371Z,76.10
2022-08-31T10:34:31.921Z,76.40
2022-08-31T10:36:40.680Z,75.90
2022-08-31T10:38:47.380Z,75.80
2022-08-31T10:40:55.999Z,74.80
2022-08-31T10:43:17.043Z,74.60
2022-08-31T10:45:25.519Z,75.00
2022-08-31T10:47:41.712Z,74.80
2022-08-31T10:49:48.685Z,74.90
2022-08-31T10:52:05.302Z,75.20
2022-08-31T10:54:28.969Z,76.40
2022-08-31T10:56:41.525Z,76.50
2022-08-31T10:59:01.652Z,75.50
2022-08-31T11:01:18.372Z,75.30
2022-08-31T11:03:43.688Z,75.60
2022-08-31T11:05:57.670Z,75.50
2022-08-31T11:08:14.569Z,74.90
2022-08-31T11:10:28.183Z,75.10
2022-08-31T11:12:42.627Z,76.00
2022-08-31T11:15:15.031Z,76.20
2022-08-31T11:17:39.977Z,76.30
2022-08-31T11:20:05.827Z,75.40
2022-08-31T11:22:35.154Z,75.30
2022-08-31T11:25:15.320Z,75.50
2022-08-31T11:27:24.906Z,75.10
2022-08-31T11:29:41.616Z,75.10
2022-08-31T11:31:46.904Z,75.30
2022-08-31T11:34:14.719Z,75.40
2022-08-31T11:36:51.170Z,75.40
2022-08-31T11:39:40.389Z,75.90
2022-08-31T11:41:46.941Z,75.20
2022-08-31T11:43:52.546Z,75.30
2022-08-31T11:46:01.584Z,75.50
2022-08-31T11:48:12.441Z,75.90
2022-08-31T11:50:54.028Z,76.90
2022-08-31T11:53:00.968Z,77.20
2022-08-31T11:55:30.620Z,76.30
2022-08-31T11:57:59.747Z,75.40
2022-08-31T12:00:04.637Z,76.00
2022-08-31T12:02:44.813Z,75.70
2022-08-31T12:05:00.775Z,75.60
2022-08-31T12:07:05.895Z,74.10
2022-08-31T12:09:24.940Z,74.60
2022-08-31T12:11:41.935Z,75.00
2022-08-31T12:13:55.146Z,74.40
2022-08-31T12:16:37.194Z,74.50
2022-08-31T12:18:58.785Z,73.70
2022-08-31T12:21:27.204Z,73.30
2022-08-31T12:23:38.832Z,72.90
2022-08-31T12:25:54.660Z,71.60
2022-08-31T12:28:09.962Z,71.50
2022-08-31T12:30:20.599Z,71.90
2022-08-31T12:32:32.521Z,71.90
2022-08-31T12:34:40.367Z,72.00
2022-08-31T12:36:45.257Z,72.20
2022-08-31T12:39:07.736Z,71.20
2022-08-31T12:41:14.171Z,70.50
2022-08-31T12:43:25.088Z,71.50
2022-08-31T12:46:03.302Z,71.00
2022-08-31T12:48:18.485Z,70.80
2022-08-31T12:50:32.297Z,71.30
2022-08-31T12:52:53.127Z,70.20
2022-08-31T12:55:19.268Z,70.70
2022-08-31T12:57:39.118Z,70.90
2022-08-31T13:00:01.276Z,70.70
2022-08-31T13:02:13.297Z,71.80
2022-08-31T13:04:22.588Z,72.10
2022-08-31T13:06:29.468Z,72.90
2022-08-31T13:08:39.433Z,72.90
2022-08-31T13:10:43.644Z,74.10
2022-08-31T13:12:52.599Z,74.00
2022-08-31T13:14:58.200Z,74.20
2022-08-31T13:17:11.851Z,74.20
2022-08-31T13:19:25.938Z,73.90
2022-08-31T13:21:30.893Z,73.70
2022-08-31T13:23:36.953Z,73.70
2022-08-31T13:25:41.971Z,73.80
2022-08-31T13:27:51.654Z,74.00
2022-08-31T13:30:12.089Z,74.40
2022-08-31T13:32:32.513Z,73.80
2022-08-31T13:34:42.117Z,74.30
2022-08-31T13:36:52.277Z,73.60
2022-08-31T13:38:58.247Z,73.30
2022-08-31T13:41:02.717Z,72.20
2022-08-31T13:43:10.816Z,70.00
2022-08-31T13:45:29.371Z,70.70
2022-08-31T13:47:38.012Z,71.50
2022-08-31T13:50:13.026Z,71.60
2022-08-31T13:52:21.690Z,71.30
2022-08-31T13:54:32.277Z,70.90
2022-08-31T13:56:58.813Z,71.20
2022-08-31T13:59:29.630Z,71.40
2022-08-31T14:01:36.749Z,71.00
2022-08-31T14:03:53.573Z,70.80
2022-08-31T14:06:16.666Z,70.00
2022-08-31T14:08:25.160Z,71.10
2022-08-31T14:10:40.744Z,71.70
2022-08-31T14:12:48.070Z,72.90
2022-08-31T14:14:55.481Z,72.80
2022-08-31T14:17:03.568Z,72.80
2022-08-31T14:19:10.844Z,72.70
2022-08-31T14:21:29.086Z,73.00
2022-08-31T14:23:36.494Z,73.30
2022-08-31T14:25:40.799Z,73.20
2022-08-31T14:27:45.082Z,73.20
2022-08-31T14:29:49.573Z,73.20
2022-08-31T14:31:58.001Z,74.10
2022-08-31T14:34:27.724Z,75.60
2022-08-31T14:36:38.438Z,76.60
2022-08-31T14:38:44.061Z,77.00
2022-08-31T14:40:50.059Z,78.00
2022-08-31T14:42:54.295Z,78.20
2022-08-31T14:45:03.049Z,78.60
2022-08-31T14:47:10.140Z,78.80
2022-08-31T14:49:16.273Z,78.60
2022-08-31T14:51:20.394Z,79.00
2022-08-31T14:53:24.816Z,79.00
2022-08-31T14:55:30.109Z,79.10
2022-08-31T14:57:35.143Z,79.10
2022-08-31T14:59:41.946Z,78.80
2022-08-31T15:01:48.646Z,78.50
2022-08-31T15:03:53.063Z,78.10
2022-08-31T15:06:03.341Z,78.20
2022-08-31T15:08:08.706Z,78.20
2022-08-31T15:10:13.694Z,78.40
2022-08-31T15:12:18.228Z,78.00
2022-08-31T15:14:22.817Z,77.80
2022-08-31T15:17:18.824Z,77.40
2022-08-31T15:19:26.156Z,77.70
2022-08-31T15:21:32.846Z,77.60
2022-08-31T15:23:41.777Z,77.50
2022-08-31T15:25:46.117Z,77.20
2022-08-31T15:27:51.730Z,76.80
2022-08-31T15:30:04.511Z,77.20
2022-08-31T15:32:10.456Z,76.80
2022-08-31T15:34:19.150Z,76.40
2022-08-31T15:36:25.101Z,76.40
2022-08-31T15:38:30.704Z,76.50
2022-08-31T15:40:39.026Z,76.30
2022-08-31T15:42:43.671Z,77.00
2022-08-31T15:44:57.027Z,77.20
2022-08-31T15:47:18.919Z,77.40
2022-08-31T15:49:23.767Z,78.00
2022-08-31T15:51:28.183Z,79.70
2022-08-31T15:53:35.476Z,80.60
2022-08-31T15:55:41.399Z,81.40
2022-08-31T15:57:45.673Z,81.90
2022-08-31T15:59:50.194Z,83.30
2022-08-31T16:01:54.571Z,83.20
2022-08-31T16:03:59.755Z,84.30
2022-08-31T16:06:05.542Z,85.30
2022-08-31T16:08:12.035Z,85.60
2022-08-31T16:10:20.365Z,88.00
2022-08-31T16:12:24.958Z,88.20
2022-08-31T16:14:31.719Z,88.40
2022-08-31T16:16:38.085Z,88.00
2022-08-31T16:18:42.539Z,89.60
2022-08-31T16:20:49.242Z,89.40
2022-08-31T16:22:53.659Z,90.10
2022-08-31T16:24:58.106Z,90.20
2022-08-31T16:27:06.460Z,90.20
2022-08-31T16:29:13.118Z,90.30
2022-08-31T16:31:17.427Z,89.60
2022-08-31T16:33:21.790Z,90.00
2022-08-31T16:35:26.287Z,90.50
2022-08-31T16:37:30.572Z,89.50
2022-08-31T16:39:36.199Z,90.30
2022-08-31T16:41:40.646Z,90.00
2022-08-31T16:44:03.469Z,90.60
2022-08-31T16:46:39.300Z,90.80
2022-08-31T16:48:55.646Z,91.10
2022-08-31T16:51:02.626Z,92.10
2022-08-31T16:53:07.215Z,92.00
2022-08-31T16:55:16.136Z,92.40
2022-08-31T16:57:23.634Z,92.90
2022-08-31T16:59:30.854Z,92.60
2022-08-31T17:01:39.659Z,93.20
2022-08-31T17:03:47.949Z,94.50
2022-08-31T17:05:54.351Z,94.80
2022-08-31T17:07:59.452Z,95.30
2022-08-31T17:10:07.416Z,96.00
2022-08-31T17:12:15.462Z,96.20
2022-08-31T17:14:22.285Z,96.70
2022-08-31T17:16:29.837Z,96.30
2022-08-31T17:18:35.145Z,97.10
2022-08-31T17:20:40.908Z,96.90
2022-08-31T17:22:48.183Z,96.80
2022-08-31T17:24:55.147Z,97.10
2022-08-31T17:27:01.369Z,97.30
2022-08-31T17:29:07.979Z,97.30
2022-08-31T17:31:12.401Z,97.80
2022-08-31T17:33:20.502Z,97.70
2022-08-31T17:35:26.065Z,98.10
2022-08-31T17:37:36.363Z,98.60
2022-08-31T17:39:40.895Z,98.90
2022-08-31T17:41:46.413Z,99.30
2022-08-31T17:43:50.799Z,99.80
2022-08-31T17:45:55.572Z,99.50
2022-08-31T17:48:00.192Z,99.50
2022-08-31T17:50:11.127Z,99.60
2022-08-31T17:52:15.541Z,99.60
2022-08-31T17:54:22.728Z,99.50
2022-08-31T17:56:33.138Z,99.60
2022-08-31T17:58:37.471Z,98.60
2022-08-31T18:00:42.174Z,99.00
2022-08-31T18:02:46.555Z,98.90
2022-08-31T18:04:52.595Z,98.50
2022-08-31T18:07:00.089Z,98.80
2022-08-31T18:09:05.999Z,97.80
2022-08-31T18:11:11.041Z,98.10
2022-08-31T18:13:15.375Z,98.10
2022-08-31T18:15:20.471Z,98.20
2022-08-31T18:17:26.728Z,97.90
2022-08-31T18:19:32.928Z,97.80
2022-08-31T18:21:40.710Z,97.80
2022-08-31T18:23:47.031Z,97.90
2022-08-31T18:25:51.448Z,97.50
2022-08-31T18:27:56.411Z,98.30
2022-08-31T18:30:01.485Z,98.20
2022-08-31T18:32:09.345Z,98.10
2022-08-31T18:34:15.530Z,98.00
2022-08-31T18:36:24.250Z,97.80
2022-08-31T18:38:28.785Z,98.10
2022-08-31T18:40:55.692Z,98.30
2022-08-31T18:43:17.803Z,98.30
2022-08-31T18:45:22.973Z,99.10
2022-08-31T18:47:31.655Z,98.90
2022-08-31T18:49:39.037Z,99.20
2022-08-31T18:51:46.423Z,99.00
2022-08-31T18:53:51.843Z,98.90
2022-08-31T18:55:58.349Z,98.90
2022-08-31T18:58:03.448Z,98.60
2022-08-31T19:00:09.346Z,99.00
2022-08-31T19:02:22.408Z,98.80
2022-08-31T19:04:27.127Z,98.90
2022-08-31T19:06:31.697Z,98.70
2022-08-31T19:08:36.522Z,98.60
2022-08-31T19:10:42.465Z,98.40
2022-08-31T19:12:48.400Z,98.50
2022-08-31T19:14:55.672Z,98.50
2022-08-31T19:17:03.284Z,98.00
2022-08-31T19:19:09.158Z,97.10
2022-08-31T19:21:20.534Z,96.50
2022-08-31T19:23:25.315Z,97.50
2022-08-31T19:25:31.915Z,97.60
2022-08-31T19:27:36.841Z,97.80
2022-08-31T19:29:45.248Z,97.60
2022-08-31T19:31:50.703Z,97.70
2022-08-31T19:33:57.053Z,98.30
2022-08-31T19:36:03.582Z,98.30
2022-08-31T19:38:09.175Z,98.60
2022-08-31T19:40:18.162Z,98.30
2022-08-31T19:42:40.228Z,98.10
2022-08-31T19:44:55.811Z,98.10
2022-08-31T19:47:03.940Z,97.90
2022-08-31T19:49:11.316Z,98.00
2022-08-31T19:51:20.014Z,98.00
2022-08-31T19:53:24.666Z,98.40
2022-08-31T19:55:29.553Z,98.30
2022-08-31T19:57:43.664Z,98.20
2022-08-31T19:59:50.031Z,98.00
2022-08-31T20:01:57.730Z,98.10
2022-08-31T20:04:04.281Z,98.10
2022-08-31T20:06:09.808Z,97.80
2022-08-31T20:08:14.424Z,97.60
2022-08-31T20:10:22.200Z,97.80
2022-08-31T20:12:29.855Z,97.70
2022-08-31T20:14:34.826Z,97.90
2022-08-31T20:16:43.618Z,97.60
2022-08-31T20:18:48.938Z,97.30
2022-08-31T20:20:55.164Z,97.10
2022-08-31T20:22:59.716Z,97.00
2022-08-31T20:25:04.447Z,96.70
2022-08-31T20:27:10.639Z,96.70
2022-08-31T20:29:16.244Z,96.70
2022-08-31T20:31:21.709Z,96.50
2022-08-31T20:33:28.473Z,96.30
2022-08-31T20:35:34.021Z,96.10
2022-08-31T20:37:40.808Z,95.80
2022-08-31T20:39:45.139Z,95.70
2022-08-31T20:41:51.942Z,95.70
2022-08-31T20:43:56.984Z,95.90
2022-08-31T20:46:03.854Z,95.60
2022-08-31T20:48:26.650Z,95.70
2022-08-31T20:50:35.893Z,95.40
2022-08-31T20:52:40.553Z,95.80
2022-08-31T20:54:45.483Z,96.10
2022-08-31T20:56:50.702Z,96.20
2022-08-31T20:58:55.076Z,96.40
2022-08-31T21:01:00.512Z,96.70
2022-08-31T21:03:05.733Z,97.10
2022-08-31T21:05:38.021Z,98.10
2022-08-31T21:07:38.940Z,98.00
2022-08-31T21:09:45.209Z,98.10
2022-08-31T21:11:50.410Z,98.20
2022-08-31T21:13:55.692Z,98.40
2022-08-31T21:16:00.417Z,99.00
2022-08-31T21:18:04.956Z,98.80
2022-08-31T21:20:10.001Z,99.00
2022-08-31T21:22:17.619Z,99.10
2022-08-31T21:24:24.432Z,98.80
2022-08-31T21:26:29.782Z,99.00
2022-08-31T21:28:34.373Z,98.90
2022-08-31T21:30:39.931Z,98.70
2022-08-31T21:32:44.901Z,98.70
2022-08-31T21:34:49.517Z,98.90
2022-08-31T21:36:54.900Z,99.10
2022-08-31T21:39:00.363Z,99.80
2022-08-31T21:41:07.063Z,99.80
2022-08-31T21:43:11.852Z,99.90
2022-08-31T21:45:17.762Z,99.90
2022-08-31T21:47:21.909Z,99.90
2022-08-31T21:49:26.216Z,99.90
2022-08-31T21:51:32.641Z,99.90
2022-08-31T21:53:36.976Z,99.90
2022-08-31T21:55:41.371Z,99.90
2022-08-31T21:57:46.992Z,99.90
2022-08-31T21:59:51.339Z,99.90
2022-08-31T22:01:59.327Z,99.90
2022-08-31T22:04:07.072Z,99.90
2022-08-31T22:06:13.928Z,99.90
2022-08-31T22:08:18.651Z,99.90
2022-08-31T22:10:23.116Z,99.90
2022-08-31T22:12:29.054Z,99.90
2022-08-31T22:14:37.298Z,99.90
2022-08-31T22:16:42.092Z,99.90
2022-08-31T22:19:06.865Z,99.90
2022-08-31T22:21:16.312Z,99.90
2022-08-31T22:23:20.754Z,99.60
2022-08-31T22:25:25.681Z,99.90
2022-08-31T22:27:30.130Z,99.90
2022-08-31T22:29:37.602Z,99.90
2022-08-31T22:31:43.711Z,99.90
2022-08-31T22:33:51.663Z,99.90
2022-08-31T22:35:58.101Z,99.90
2022-08-31T22:38:02.417Z,99.90
2022-08-31T22:40:07.726Z,99.90
2022-08-31T22:42:13.266Z,99.90
2022-08-31T22:44:19.216Z,99.90
2022-08-31T22:46:25.259Z,99.90
2022-08-31T22:48:29.581Z,99.90
2022-08-31T22:50:35.824Z,99.90
2022-08-31T22:52:49.312Z,99.90
2022-08-31T22:54:53.914Z,99.90
2022-08-31T22:56:59.315Z,99.90
2022-08-31T22:59:08.483Z,99.90
2022-08-31T23:01:21.119Z,99.90
2022-08-31T23:03:27.806Z,99.90
2022-08-31T23:05:32.199Z,99.90
2022-08-31T23:07:36.903Z,99.90
2022-08-31T23:09:41.419Z,99.90
2022-08-31T23:11:45.687Z,99.90
2022-08-31T23:13:55.726Z,99.90
2022-08-31T23:16:00.164Z,99.90
2022-08-31T23:18:05.618Z,99.90
2022-08-31T23:20:12.223Z,99.90
2022-08-31T23:22:17.442Z,99.90
2022-08-31T23:24:26.077Z,99.90
2022-08-31T23:26:31.928Z,99.90
2022-08-31T23:28:35.799Z,99.90
2022-08-31T23:30:43.363Z,99.90
2022-08-31T23:32:48.539Z,99.90
2022-08-31T23:34:53.061Z,99.90
2022-08-31T23:36:58.823Z,99.90
2022-08-31T23:39:04.970Z,99.90
2022-08-31T23:41:13.664Z,99.90
2022-08-31T23:43:18.325Z,99.90
2022-08-31T23:45:22.748Z,99.90
2022-08-31T23:47:30.661Z,99.90
2022-08-31T23:49:39.328Z,99.90
2022-08-31T23:51:44.284Z,99.90
2022-08-31T23:53:54.134Z,99.90
2022-08-31T23:55:58.484Z,99.90
2022-08-31T23:58:04.413Z,99.90
